Terminal Aerodrome Forecast
Issued by NWS Salt Lake City, UT

Home | Current Version | Previous Version | Text Only | Print | Product List | Glossary On
Versions: 1 2 3 4 5 6 7 8 9 10 11 12 13 14 15 16 17 18 19 20 21 22 23 24 25 26 27 28 29
000
FTUS45 KSLC 272342
TAFCDC
TAF
KCDC 272342Z 2800/2824 18015KT P6SM VCSH SCT080 BKN100
     FM280300 17006KT P6SM VCSH BKN080 BKN100
     FM281800 22007KT P6SM VCTS SCT070CB BKN100
     FM282300 22007KT P6SM VCSH SCT070 BKN100=

USA.gov is the U.S. government's official web portal to all federal, state and local government web resources and services.